Hall Beach Airport
CYUX : now visible

Airfield :











YOU CAN JOIN US ON...

 
LOGIN :

Register | Disclaimer

   EN    FR    IT 

 









Legend :    VFR   Marginal VFR   IFR   Intensive IFR   Very Intensive IFR
Visi :
Ceiling :
>= 8 km
>= 3000ft
5 to 8 km
1000 to 3000 ft
1500m to 5 km
500 to 1000 ft
800 to 1500m
200 to 500 ft
< 800m
< 200 ft
Symbols :   Thunderstorms  Fog  Heavy snow  Heavy precipitations  Wind > 20 kt






- Airport Elevation : 27 ft
- IATA code : YUX


CYUX - Hall Beach

CURRENT METAR :
  • 090140Z AUTO 06015KT 2 1/2SM -SN SCT040 OVC060 M14/M15 A2956 RMK SLP011

EXPIRED METARs :
  • 090127Z AUTO 06014KT 3SM -SN BKN035 OVC060 M14/M15 A2956 RMK SLP011
  • 090108Z AUTO 06014KT 2 1/2SM -SN OVC029 M14/M15 A2956 RMK VIS VRB 1 1/2-3 SLP011
  • 090021Z AUTO 07013KT 5SM -SN OVC035 M15/M16 A2956 RMK SLP014
  • 082346Z 06008KT 15SM SCT050 SCT065 BKN160 M17/M18 A2956 RMK SC3SC1AC2 SLP014
  • 082300Z 04008KT 12SM -SN FEW013 M18/M20 A2956 RMK SC2 SLP014

TAF TAF CYUX
Valid from the 09 at 01:00 until the 09 at 13:00 UTC


090038Z 0901/0913 07012KT P6SM -SN SCT015
TEMPO 0901/0903 2SM -SN BLSN BKN015
FM090300 04020KT 3/4SM -SN BLSN BKN020
TEMPO 0903/0913 3SM BLSN SCT020 RMK NXT FCST BY 090700Z



MET'MAP, your aeronautical weather chart ! - Copyright ORBIFLY December 2007 - Disclaimer

ORBIFLY MET'MAP TEAM :

Programming & Development : Alexandra Zaïnal
Concept & original design : Baudouin d'Aumeries
Assistance for programming : Marc-Olivier Méhu
Technical & hardware support : Manuel Goepfert

Contact : metmap@orbifly.com




SOURCES & CREDITS :

   NOAA       Earth
Advisory